Time;durP1;ratioP1;P1;durP2;ratioP2;P2;SDS_P1;SDS_P2;PMS_P1;PMS_P2;Temp;Humidity;BMP_temperature;BMP_pressure;BME280_temperature;BME280_humidity;BME280_pressure;Samples;Min_cycle;Max_cycle;Signal;HPM_P1;HPM_P2
2021/10/07 00:00:37;;;;;;;27.40;13.78;;;;;;;3.59;54.98;102285.04;1714143;81;21037;-66
2021/10/07 00:03:04;;;;;;;34.58;15.25;;;;;;;3.58;55.01;102289.47;1711139;81;21042;-62
2021/10/07 00:05:30;;;;;;;;;;;;;;;3.56;55.10;102282.58;1665169;85;21069;-62
2021/10/07 00:07:56;;;;;;;35.57;16.27;;;;;;;3.53;55.10;102295.97;1648362;85;20115;-61
2021/10/07 00:10:23;;;;;;;48.58;19.75;;;;;;;3.48;55.22;102296.23;1660208;84;21031;-62
2021/10/07 00:12:49;;;;;;;32.08;12.90;;;;;;;3.45;55.22;102291.17;1675371;84;21209;-61
2021/10/07 00:15:15;;;;;;;18.87;10.17;;;;;;;3.44;55.26;102296.89;1682666;84;21046;-60
2021/10/07 00:17:43;;;;;;;10.43;7.50;;;;;;;3.44;55.31;102298.69;1680287;84;21025;-61
2021/10/07 00:20:13;;;;;;;9.38;5.47;;;;;;;3.42;55.38;102304.53;1670835;84;21107;-65
2021/10/07 00:22:40;;;;;;;9.43;6.00;;;;;;;3.41;55.39;102299.73;1675124;84;21212;-62
2021/10/07 00:25:09;;;;;;;9.67;6.27;;;;;;;3.38;55.42;102306.50;1660209;84;21031;-61
2021/10/07 00:27:36;;;;;;;7.70;5.83;;;;;;;3.35;55.61;102302.72;1663188;84;21575;-61
2021/10/07 00:30:16;;;;;;;11.65;5.90;;;;;;;3.29;55.78;102299.98;1702073;81;21465;-62
2021/10/07 00:33:34;;;;;;;7.93;5.70;;;;;;;3.26;55.98;102298.03;1661258;85;21527;-63
2021/10/07 00:35:23;;;;;;;17.13;5.70;;;;;;;3.22;56.17;102302.64;1699141;81;21065;-68
2021/10/07 00:40:09;;;;;;;13.62;7.35;;;;;;;3.14;56.45;102304.87;1679062;83;21022;-64
2021/10/07 00:42:35;;;;;;;13.23;6.50;;;;;;;3.10;56.49;102302.04;1718481;81;21055;-62
2021/10/07 00:45:03;;;;;;;14.98;6.92;;;;;;;3.07;56.70;102312.75;1716313;81;21093;-63
2021/10/07 00:47:29;;;;;;;13.43;6.00;;;;;;;3.07;56.70;102314.07;1689450;85;21037;-62
2021/10/07 00:49:55;;;;;;;8.70;6.12;;;;;;;3.01;56.85;102310.01;1708870;81;20984;-60
2021/10/07 00:52:22;;;;;;;9.23;5.87;;;;;;;3.01;56.83;102313.96;1711589;81;21033;-61
2021/10/07 00:54:52;;;;;;;14.93;7.15;;;;;;;3.00;56.95;102312.28;1677045;83;21283;-60
2021/10/07 00:57:20;;;;;;;9.67;6.40;;;;;;;2.95;56.99;102316.97;1723753;81;21049;-61
2021/10/07 00:59:49;;;;;;;10.60;5.50;;;;;;;2.94;57.05;102316.61;1679229;83;21116;-63
2021/10/07 01:02:17;;;;;;;6.63;5.60;;;;;;;2.90;57.10;102318.56;1717596;81;21026;-62
2021/10/07 01:04:44;;;;;;;8.93;5.47;;;;;;;2.90;57.20;102317.70;1721636;81;21057;-63
2021/10/07 01:07:11;;;;;;;6.07;4.57;;;;;;;2.88;57.29;102323.08;1725567;81;21029;-61
2021/10/07 01:09:39;;;;;;;11.03;5.80;;;;;;;2.84;57.43;102325.48;1689576;83;21013;-62
2021/10/07 01:12:07;;;;;;;14.50;5.27;;;;;;;2.83;57.61;102331.70;1724135;81;21560;-61
2021/10/07 01:14:48;;;;;;;12.77;5.93;;;;;;;2.78;57.80;102325.84;1725443;81;21045;-65
2021/10/07 01:17:17;;;;;;;9.57;5.97;;;;;;;2.75;57.84;102329.13;1724741;81;21010;-65
2021/10/07 01:19:53;;;;;;;6.43;4.60;;;;;;;2.71;58.07;102335.03;1678677;83;21011;-62
2021/10/07 01:22:21;;;;;;;6.53;5.07;;;;;;;2.69;57.98;102336.47;1710857;81;21002;-66
2021/10/07 01:24:49;;;;;;;8.77;5.67;;;;;;;2.67;58.18;102338.78;1692726;83;21010;-65
2021/10/07 01:27:23;;;;;;;10.70;5.47;;;;;;;2.68;58.22;102328.65;1687511;83;21044;-63
2021/10/07 01:30:02;;;;;;;7.83;5.57;;;;;;;2.65;58.21;102333.60;1649380;85;21052;-63
2021/10/07 01:32:34;;;;;;;9.23;5.77;;;;;;;2.62;58.38;102336.44;1687365;83;21066;-64
2021/10/07 01:35:00;;;;;;;8.13;5.60;;;;;;;2.62;58.33;102336.88;1682573;83;21383;-63
2021/10/07 01:37:26;;;;;;;7.78;6.10;;;;;;;2.58;58.45;102341.50;1678037;83;21017;-67
2021/10/07 01:39:52;;;;;;;9.83;5.60;;;;;;;2.58;58.46;102339.30;1685324;83;21081;-63
2021/10/07 01:42:18;;;;;;;8.80;5.37;;;;;;;2.53;58.67;102336.95;1684786;83;21013;-64
2021/10/07 01:44:44;;;;;;;6.83;5.58;;;;;;;2.48;58.92;102341.14;1678751;83;21045;-64
2021/10/07 01:47:10;;;;;;;8.28;5.70;;;;;;;2.46;58.93;102350.07;1686727;83;21045;-62
2021/10/07 01:49:37;;;;;;;9.75;5.28;;;;;;;2.46;58.89;102350.91;1680204;83;21545;-63
2021/10/07 01:52:04;;;;;;;11.63;5.37;;;;;;;2.44;59.01;102347.52;1684634;83;21505;-59
2021/10/07 01:54:30;;;;;;;6.00;4.57;;;;;;;2.43;58.95;102355.05;1687282;83;21002;-63
2021/10/07 01:56:56;;;;;;;13.48;4.85;;;;;;;2.44;58.99;102358.52;1689380;83;20957;-63
2021/10/07 01:59:22;;;;;;;7.15;5.20;;;;;;;2.43;59.00;102352.86;1671751;85;21041;-62
2021/10/07 02:01:48;;;;;;;8.95;5.03;;;;;;;2.44;58.98;102352.78;1683480;84;21029;-63
2021/10/07 02:04:14;;;;;;;12.43;5.15;;;;;;;2.42;59.02;102355.13;1675249;85;21013;-68
2021/10/07 02:06:40;;;;;;;7.00;5.40;;;;;;;2.39;59.10;102357.45;1669007;85;21184;-64
2021/10/07 02:09:07;;;;;;;6.05;4.33;;;;;;;2.37;59.21;102360.63;1677152;85;21085;-63
2021/10/07 02:11:34;;;;;;;;;;;;;;;2.36;59.25;102361.59;1674225;84;21048;-63
2021/10/07 02:14:01;;;;;;;6.05;4.95;;;;;;;2.32;59.26;102360.91;1668396;84;20166;-62
2021/10/07 02:16:29;;;;;;;6.47;5.35;;;;;;;2.28;59.42;102365.09;1686335;83;21061;-66
2021/10/07 02:18:55;;;;;;;8.37;3.93;;;;;;;2.25;59.46;102362.17;1671574;85;21021;-62
2021/10/07 02:21:22;;;;;;;7.75;4.95;;;;;;;2.27;59.49;102360.77;1680760;85;22252;-67
2021/10/07 02:23:48;;;;;;;9.67;5.00;;;;;;;2.27;59.44;102365.56;1686018;84;21540;-63
2021/10/07 02:26:15;;;;;;;8.63;5.40;;;;;;;2.25;59.48;102362.64;1677632;85;21821;-65
2021/10/07 02:28:41;;;;;;;5.25;4.42;;;;;;;2.26;59.46;102363.02;1674616;83;20990;-67
2021/10/07 02:31:08;;;;;;;7.83;5.08;;;;;;;2.23;59.64;102368.46;1668168;84;20986;-64
2021/10/07 02:33:34;;;;;;;8.93;4.80;;;;;;;2.23;59.59;102371.09;1677329;84;21006;-66
2021/10/07 02:36:00;;;;;;;6.40;4.25;;;;;;;2.20;59.79;102368.62;1676450;85;21052;-62
2021/10/07 02:38:26;;;;;;;5.78;4.45;;;;;;;2.19;59.82;102366.94;1679794;85;21053;-63
2021/10/07 02:40:52;;;;;;;13.72;5.00;;;;;;;2.16;59.85;102369.25;1666264;84;21006;-63
2021/10/07 02:43:18;;;;;;;11.97;4.92;;;;;;;2.17;59.90;102368.77;1663276;85;21082;-62
2021/10/07 02:45:44;;;;;;;10.50;5.80;;;;;;;2.13;59.90;102372.06;1682913;84;20982;-67
2021/10/07 02:48:10;;;;;;;;;;;;;;;2.13;59.88;102382.59;1670272;84;21132;-62
2021/10/07 02:50:37;;;;;;;7.50;4.70;;;;;;;2.12;59.85;102380.41;1663527;83;20190;-60
2021/10/07 02:53:03;;;;;;;;;;;;;;;2.09;59.94;102383.66;1667081;85;21912;-64
2021/10/07 02:55:30;;;;;;;9.27;4.23;;;;;;;2.12;59.90;102377.77;1680236;85;20224;-62
2021/10/07 02:57:56;;;;;;;;;;;;;;;2.06;60.03;102381.22;1674071;83;21165;-62
2021/10/07 03:00:23;;;;;;;5.33;4.77;;;;;;;2.08;60.00;102384.61;1675359;83;20502;-63
2021/10/07 03:02:49;;;;;;;7.47;5.12;;;;;;;2.01;60.12;102380.13;1666034;83;21918;-62
2021/10/07 03:05:15;;;;;;;7.08;4.42;;;;;;;2.03;60.15;102382.21;1674074;83;21090;-64
2021/10/07 03:07:41;;;;;;;6.33;4.03;;;;;;;2.01;60.19;102381.45;1679963;85;21049;-65
2021/10/07 03:10:09;;;;;;;12.40;4.50;;;;;;;2.03;60.23;102384.84;1616797;86;21370;-69
2021/10/07 03:12:35;;;;;;;6.80;4.90;;;;;;;2.00;60.25;102386.34;1619462;86;21061;-64
2021/10/07 03:15:02;;;;;;;6.10;5.20;;;;;;;2.00;60.43;102388.09;1625266;86;21069;-63
2021/10/07 03:17:29;;;;;;;6.90;4.77;;;;;;;1.97;60.36;102389.13;1647075;86;21459;-64
2021/10/07 03:19:55;;;;;;;9.05;4.78;;;;;;;1.98;60.42;102383.39;1627179;86;21512;-63
2021/10/07 03:22:21;;;;;;;8.48;4.85;;;;;;;1.94;60.43;102391.47;1667727;83;21600;-64
2021/10/07 03:24:49;;;;;;;8.33;5.40;;;;;;;1.93;60.49;102388.91;1622045;86;21048;-64
2021/10/07 03:27:17;;;;;;;11.48;4.75;;;;;;;1.91;60.48;102392.94;1682529;83;21083;-65
2021/10/07 03:29:43;;;;;;;6.83;4.87;;;;;;;1.93;60.50;102389.75;1692436;83;21064;-63
2021/10/07 03:32:09;;;;;;;5.05;3.95;;;;;;;1.92;60.53;102397.72;1687728;83;21013;-62
2021/10/07 03:34:35;;;;;;;7.87;5.22;;;;;;;1.92;60.57;102390.70;1667874;84;21159;-66
2021/10/07 03:37:01;;;;;;;5.53;4.20;;;;;;;1.89;60.68;102389.53;1693517;84;20985;-64
2021/10/07 03:39:27;;;;;;;10.43;5.05;;;;;;;1.90;60.61;102388.63;1676019;84;21009;-66
2021/10/07 03:41:53;;;;;;;6.83;5.25;;;;;;;1.88;60.77;102386.98;1677503;84;21125;-64
2021/10/07 03:44:19;;;;;;;6.42;5.15;;;;;;;1.85;60.80;102389.80;1680011;82;21060;-64
2021/10/07 03:46:46;;;;;;;8.20;4.75;;;;;;;1.82;60.82;102391.27;1683025;84;21056;-59
2021/10/07 03:49:13;;;;;;;8.90;4.40;;;;;;;1.80;60.85;102401.02;1686516;83;21493;-62
2021/10/07 03:51:39;;;;;;;6.70;5.47;;;;;;;1.77;60.91;102400.69;1682452;84;21504;-64
2021/10/07 03:54:05;;;;;;;5.90;5.35;;;;;;;1.74;61.07;102409.59;1669224;83;21096;-63
2021/10/07 03:56:32;;;;;;;7.95;5.28;;;;;;;1.73;61.05;102401.78;1684806;80;21035;-63
2021/10/07 03:58:58;;;;;;;;;;;;;;;1.69;61.16;102399.77;1685535;83;21017;-67
2021/10/07 04:01:24;;;;;;;14.40;5.17;;;;;;;1.69;61.16;102401.09;1674419;83;20167;-65
2021/10/07 04:03:50;;;;;;;8.30;5.17;;;;;;;1.63;61.34;102400.11;1683400;84;20941;-64
2021/10/07 04:06:16;;;;;;;10.85;5.05;;;;;;;1.67;61.34;102403.42;1667448;84;21112;-65
2021/10/07 04:08:43;;;;;;;11.05;5.75;;;;;;;1.54;61.32;102383.49;1672181;84;21052;-67
2021/10/07 04:11:09;;;;;;;9.23;5.90;;;;;;;1.70;61.24;102400.65;1681885;83;20942;-65
2021/10/07 04:13:35;;;;;;;10.38;5.60;;;;;;;1.34;61.25;102344.65;1678433;83;21075;-66
2021/10/07 04:16:01;;;;;;;11.28;4.45;;;;;;;1.74;61.19;102404.34;1673613;83;20997;-67
2021/10/07 04:18:27;;;;;;;9.03;3.95;;;;;;;1.77;61.22;102406.42;1685643;84;21097;-66
2021/10/07 04:20:53;;;;;;;9.58;4.62;;;;;;;1.80;61.09;102411.05;1683739;84;21032;-67
2021/10/07 04:23:19;;;;;;;6.95;4.72;;;;;;;1.81;61.05;102413.21;1675145;83;21096;-66
2021/10/07 04:28:39;;;;;;;6.80;4.90;;;;;;;2.10;60.83;102407.27;1769472;78;22345;-65
2021/10/07 04:31:05;;;;;;;11.30;4.58;;;;;;;2.26;60.45;102409.06;1673775;83;21048;-65
2021/10/07 04:33:32;;;;;;;5.63;4.53;;;;;;;2.60;60.07;102406.77;1669545;84;21061;-66
2021/10/07 04:35:58;;;;;;;10.98;4.83;;;;;;;3.07;58.79;102412.87;1640078;86;21129;-67
2021/10/07 04:38:24;;;;;;;9.85;4.55;;;;;;;3.54;57.17;102410.55;1632883;86;21068;-68
2021/10/07 04:40:50;;;;;;;4.87;4.47;;;;;;;4.03;56.04;102411.56;1622408;86;21147;-66
2021/10/07 04:43:18;;;;;;;8.83;4.03;;;;;;;4.53;55.18;102417.23;1616645;87;21148;-66
2021/10/07 04:45:44;;;;;;;8.20;4.00;;;;;;;5.11;53.48;102416.57;1621040;86;21032;-66
2021/10/07 04:48:12;;;;;;;5.67;3.92;;;;;;;5.65;51.90;102422.20;1618306;86;21060;-64
2021/10/07 04:50:38;;;;;;;6.53;3.93;;;;;;;6.10;49.83;102419.98;1617192;86;21516;-65
2021/10/07 04:53:04;;;;;;;4.85;3.22;;;;;;;6.51;49.20;102415.36;1642801;84;21001;-66
2021/10/07 04:55:31;;;;;;;4.67;3.73;;;;;;;6.88;47.24;102414.84;1632178;85;21955;-67
2021/10/07 04:57:57;;;;;;;6.80;4.10;;;;;;;7.15;47.17;102415.92;1640726;87;21667;-66
2021/10/07 05:00:23;;;;;;;4.53;3.65;;;;;;;7.57;46.62;102418.95;1625601;87;21622;-64
2021/10/07 05:02:49;;;;;;;4.33;3.55;;;;;;;8.10;45.05;102417.52;1623411;85;21021;-66
2021/10/07 05:05:15;;;;;;;3.95;3.35;;;;;;;8.57;44.41;102417.77;1630713;85;21124;-67
2021/10/07 05:07:43;;;;;;;4.28;3.33;;;;;;;9.10;42.87;102418.31;1627128;86;21024;-68
2021/10/07 05:10:10;;;;;;;4.87;3.70;;;;;;;9.54;41.90;102425.69;1628548;85;21481;-68
2021/10/07 05:12:39;;;;;;;6.97;2.80;;;;;;;9.91;41.13;102430.54;1654634;82;21445;-68
2021/10/07 05:15:07;;;;;;;5.60;3.13;;;;;;;10.29;40.11;102428.17;1665848;85;21476;-67
2021/10/07 05:17:34;;;;;;;5.47;3.60;;;;;;;10.67;39.43;102424.78;1656421;84;21034;-71
2021/10/07 05:20:00;;;;;;;6.55;3.65;;;;;;;11.03;38.36;102426.42;1662588;84;21670;-66
2021/10/07 05:22:26;;;;;;;10.30;3.25;;;;;;;11.29;37.48;102425.87;1666422;84;21163;-69
2021/10/07 05:24:52;;;;;;;6.15;2.77;;;;;;;11.55;37.01;102427.45;1665298;84;21056;-70
2021/10/07 05:27:18;;;;;;;9.35;3.67;;;;;;;11.68;36.22;102432.48;1663217;84;21147;-68
2021/10/07 05:29:44;;;;;;;5.30;2.55;;;;;;;11.57;36.25;102432.66;1661414;84;21013;-69
2021/10/07 05:32:10;;;;;;;3.80;3.08;;;;;;;11.50;35.97;102431.87;1663840;84;21028;-67
2021/10/07 05:34:37;;;;;;;7.45;3.67;;;;;;;11.45;36.19;102436.82;1662907;83;21505;-66
2021/10/07 05:37:03;;;;;;;7.65;3.80;;;;;;;11.60;35.94;102437.22;1666916;85;21068;-68
2021/10/07 05:39:30;;;;;;;5.58;3.90;;;;;;;11.78;35.32;102429.28;1654376;85;21529;-69
2021/10/07 05:41:56;;;;;;;8.55;3.50;;;;;;;12.08;35.05;102438.09;1664822;85;21084;-66
2021/10/07 05:44:22;;;;;;;4.33;2.87;;;;;;;12.39;34.19;102441.80;1669971;85;21061;-68
2021/10/07 05:46:48;;;;;;;5.33;3.45;;;;;;;12.44;34.13;102451.06;1653428;85;21102;-68
2021/10/07 05:49:14;;;;;;;6.92;2.85;;;;;;;12.51;33.82;102447.31;1670327;84;21040;-66
2021/10/07 05:51:41;;;;;;;5.28;3.40;;;;;;;12.69;33.71;102442.48;1676138;84;21777;-69
2021/10/07 05:54:07;;;;;;;6.20;3.22;;;;;;;12.80;33.19;102447.62;1670121;84;21069;-68
2021/10/07 05:56:34;;;;;;;8.55;3.80;;;;;;;12.49;33.19;102445.28;1683407;83;21088;-67
2021/10/07 05:59:00;;;;;;;6.47;3.25;;;;;;;12.32;33.70;102450.06;1666612;84;21051;-71
2021/10/07 06:01:26;;;;;;;7.47;3.92;;;;;;;12.45;33.29;102442.06;1661194;84;21011;-71
2021/10/07 06:03:52;;;;;;;7.25;4.03;;;;;;;12.34;33.54;102460.98;1669312;84;21048;-68
2021/10/07 06:06:18;;;;;;;7.80;3.90;;;;;;;12.15;33.64;102453.02;1677345;84;21130;-70
2021/10/07 06:08:45;;;;;;;9.45;4.35;;;;;;;12.26;33.65;102449.69;1694126;84;21092;-67
2021/10/07 06:11:11;;;;;;;4.47;4.08;;;;;;;12.47;33.37;102459.30;1688834;81;20989;-67
2021/10/07 06:13:37;;;;;;;6.08;4.30;;;;;;;12.17;33.36;102466.61;1674682;84;22243;-67
2021/10/07 06:16:03;;;;;;;5.12;4.20;;;;;;;11.29;34.57;102469.92;1676768;84;21539;-69
2021/10/07 06:18:30;;;;;;;6.30;4.33;;;;;;;10.32;35.96;102464.77;1672323;85;21602;-68
2021/10/07 06:20:56;;;;;;;7.95;5.12;;;;;;;9.55;37.47;102466.50;1662204;85;21014;-67
2021/10/07 06:23:22;;;;;;;7.42;4.58;;;;;;;8.84;39.07;102470.16;1673019;84;20957;-67
2021/10/07 06:25:48;;;;;;;5.37;4.70;;;;;;;8.26;40.27;102467.66;1676542;83;20966;-67
2021/10/07 06:28:14;;;;;;;7.17;4.12;;;;;;;7.80;41.23;102474.25;1677804;83;21021;-66
2021/10/07 06:30:40;;;;;;;5.45;4.42;;;;;;;7.46;42.36;102479.95;1658022;86;20986;-70
2021/10/07 06:33:06;;;;;;;4.15;3.52;;;;;;;7.22;42.88;102470.69;1674001;81;21005;-69
2021/10/07 06:35:32;;;;;;;7.97;4.70;;;;;;;6.96;44.11;102458.86;1679640;85;21033;-67
2021/10/07 06:37:59;;;;;;;8.00;5.53;;;;;;;6.61;45.03;102465.39;1667241;84;21033;-66
2021/10/07 06:40:25;;;;;;;12.35;5.35;;;;;;;6.44;45.19;102463.95;1670705;85;20980;-66
2021/10/07 06:42:51;;;;;;;9.30;4.67;;;;;;;6.40;45.59;102463.35;1685335;84;21049;-67
2021/10/07 06:45:17;;;;;;;10.48;4.75;;;;;;;6.38;45.57;102476.31;1686177;81;20969;-66
2021/10/07 06:47:43;;;;;;;7.28;4.50;;;;;;;6.34;46.18;102466.90;1679631;84;21021;-66
2021/10/07 06:50:12;;;;;;;7.17;3.22;;;;;;;6.31;46.13;102464.00;1673588;85;21084;-67
2021/10/07 06:52:41;;;;;;;5.53;4.20;;;;;;;6.31;46.57;102473.27;1655076;85;21530;-66
2021/10/07 06:55:10;;;;;;;10.97;4.70;;;;;;;6.22;46.89;102458.02;1677091;84;21490;-67
2021/10/07 06:57:41;;;;;;;7.23;3.73;;;;;;;6.20;47.38;102475.34;1679984;84;21001;-66
2021/10/07 07:00:11;;;;;;;5.13;3.80;;;;;;;6.24;46.98;102473.33;1678377;83;20965;-68
2021/10/07 07:02:40;;;;;;;6.83;3.13;;;;;;;6.26;46.97;102469.25;1674591;84;21429;-71
2021/10/07 07:05:08;;;;;;;9.33;3.40;;;;;;;6.35;47.64;102468.13;1677353;84;21109;-69
2021/10/07 07:07:35;;;;;;;6.30;3.53;;;;;;;6.49;47.33;102469.78;1683175;84;21037;-68
2021/10/07 07:10:03;;;;;;;5.47;3.65;;;;;;;6.60;47.03;102469.86;1682300;84;21033;-67
2021/10/07 07:12:29;;;;;;;6.73;4.50;;;;;;;6.72;46.66;102467.28;1682685;83;21013;-68
2021/10/07 07:14:55;;;;;;;11.93;4.72;;;;;;;6.80;46.25;102464.94;1677487;84;21076;-67
2021/10/07 07:17:21;;;;;;;3.52;3.22;;;;;;;6.90;46.14;102463.79;1678159;85;21521;-65
2021/10/07 07:19:48;;;;;;;9.18;3.65;;;;;;;7.00;45.88;102468.77;1675513;84;20989;-67
2021/10/07 07:22:15;;;;;;;6.60;4.87;;;;;;;7.04;45.97;102470.23;1682895;83;21049;-67
2021/10/07 07:24:42;;;;;;;10.67;3.77;;;;;;;7.11;45.65;102477.27;1654612;85;21026;-69
2021/10/07 07:27:11;;;;;;;4.97;2.15;;;;;;;7.17;45.15;102473.67;1681502;84;21037;-68
2021/10/07 07:29:36;;;;;;;5.50;2.07;;;;;;;7.23;45.09;102476.83;1669032;84;21001;-70
2021/10/07 07:32:03;;;;;;;2.83;2.45;;;;;;;7.19;44.57;102477.54;1668350;84;21071;-68
2021/10/07 07:34:30;;;;;;;4.70;2.77;;;;;;;7.09;44.45;102476.54;1677314;83;21403;-69
2021/10/07 07:36:56;;;;;;;6.62;2.75;;;;;;;6.93;45.02;102471.50;1682122;84;21072;-66
2021/10/07 07:39:23;;;;;;;6.72;2.60;;;;;;;6.93;45.41;102478.13;1672620;84;21669;-66
2021/10/07 07:41:50;;;;;;;6.10;3.13;;;;;;;7.03;45.10;102475.19;1683653;84;21052;-67
2021/10/07 07:44:16;;;;;;;8.58;2.37;;;;;;;7.17;44.95;102469.69;1678960;83;21013;-67
2021/10/07 07:46:42;;;;;;;5.58;2.05;;;;;;;7.32;44.66;102484.95;1666773;85;21076;-68
2021/10/07 07:49:08;;;;;;;9.28;2.58;;;;;;;7.44;44.63;102479.23;1677947;84;21032;-68
2021/10/07 07:51:34;;;;;;;8.33;1.85;;;;;;;7.56;43.53;102485.41;1677166;84;21091;-67
2021/10/07 07:54:00;;;;;;;6.83;2.00;;;;;;;7.66;42.85;102482.90;1675246;84;21033;-68
2021/10/07 07:56:26;;;;;;;3.65;2.15;;;;;;;7.72;42.89;102472.67;1680476;83;21076;-68
2021/10/07 07:58:53;;;;;;;7.55;3.60;;;;;;;7.76;43.03;102474.13;1675798;84;21072;-67
2021/10/07 08:01:20;;;;;;;5.93;1.70;;;;;;;7.80;42.92;102484.88;1677323;82;21068;-69
2021/10/07 08:03:47;;;;;;;2.20;1.60;;;;;;;7.87;41.38;102473.77;1665955;84;21628;-66
2021/10/07 08:06:13;;;;;;;7.22;1.80;;;;;;;7.86;41.24;102479.57;1685064;84;21508;-69
2021/10/07 08:08:39;;;;;;;4.95;1.98;;;;;;;7.89;40.91;102474.03;1673406;84;21810;-67
2021/10/07 08:11:05;;;;;;;12.73;1.52;;;;;;;7.67;41.46;102428.87;1675938;82;21452;-67
2021/10/07 08:13:31;;;;;;;5.05;1.25;;;;;;;8.01;41.49;102464.75;1651275;85;20991;-69
2021/10/07 08:15:58;;;;;;;8.63;1.90;;;;;;;8.12;41.55;102482.03;1661822;85;21484;-68
2021/10/07 08:18:24;;;;;;;5.00;1.10;;;;;;;8.26;41.33;102471.64;1662013;85;20974;-68
2021/10/07 08:20:52;;;;;;;5.22;2.55;;;;;;;8.41;40.62;102470.91;1652012;85;21077;-68
2021/10/07 08:23:22;;;;;;;3.73;1.07;;;;;;;8.52;40.07;102454.98;1639089;86;21386;-69
2021/10/07 08:25:47;;;;;;;3.20;1.67;;;;;;;8.61;39.58;102466.22;1662088;85;20977;-69
2021/10/07 08:28:13;;;;;;;3.02;1.00;;;;;;;8.70;39.16;102457.50;1658424;85;21034;-68
2021/10/07 08:30:39;;;;;;;5.35;1.15;;;;;;;8.77;38.04;102452.02;1681642;83;21033;-66
2021/10/07 08:33:06;;;;;;;3.45;0.78;;;;;;;8.78;38.06;102456.87;1681052;83;21073;-67
2021/10/07 08:35:32;;;;;;;;;;;;;;;8.77;37.70;102452.52;1706742;83;21106;-65
2021/10/07 08:37:59;;;;;;;6.70;0.70;;;;;;;8.77;37.47;102460.00;1707710;83;20184;-70
2021/10/07 08:40:25;;;;;;;1.17;0.57;;;;;;;8.72;37.28;102440.94;1705286;83;21041;-69
2021/10/07 08:42:52;;;;;;;4.97;1.17;;;;;;;8.70;37.46;102436.23;1711927;83;21480;-71
2021/10/07 08:45:18;;;;;;;6.80;1.15;;;;;;;8.75;37.51;102435.34;1691291;81;21057;-68
2021/10/07 08:47:47;;;;;;;7.00;1.03;;;;;;;8.85;37.75;102427.95;1675870;83;20981;-69
2021/10/07 08:50:16;;;;;;;3.70;0.93;;;;;;;8.93;37.26;102430.84;1667518;84;21190;-70
2021/10/07 08:52:42;;;;;;;8.83;0.70;;;;;;;9.00;37.06;102440.48;1669849;83;20994;-69
2021/10/07 08:55:08;;;;;;;2.30;0.90;;;;;;;9.08;37.13;102426.05;1665792;82;20981;-68
2021/10/07 08:57:35;;;;;;;2.40;0.75;;;;;;;9.09;36.73;102447.70;1666978;84;20984;-70
2021/10/07 09:00:03;;;;;;;2.33;0.75;;;;;;;9.13;36.32;102426.02;1661434;86;21089;-66
2021/10/07 09:02:33;;;;;;;3.13;1.00;;;;;;;9.18;35.58;102441.62;1643699;85;21009;-69
2021/10/07 09:05:19;;;;;;;1.70;0.60;;;;;;;9.19;35.87;102438.47;1647876;85;21469;-68
2021/10/07 09:07:56;;;;;;;7.00;0.90;;;;;;;9.10;35.89;102428.12;1651278;85;21038;-68
2021/10/07 09:10:50;;;;;;;4.58;0.62;;;;;;;9.11;36.27;102429.30;1653896;85;21017;-69
2021/10/07 09:13:25;;;;;;;1.47;0.70;;;;;;;9.19;36.22;102418.51;1636641;84;20964;-70
2021/10/07 09:15:56;;;;;;;4.23;1.30;;;;;;;9.28;36.74;102404.44;1640430;86;20972;-68
2021/10/07 09:18:27;;;;;;;1.80;1.13;;;;;;;9.38;36.52;102420.00;1646217;85;21483;-70
2021/10/07 09:20:57;;;;;;;0.87;0.80;;;;;;;9.49;36.29;102437.24;1637951;85;21821;-67
2021/10/07 09:23:33;;;;;;;2.47;0.93;;;;;;;9.51;36.26;102406.47;1650483;85;21098;-65
2021/10/07 09:26:04;;;;;;;8.80;1.63;;;;;;;9.57;36.46;102410.43;1670513;85;20946;-64
2021/10/07 09:28:54;;;;;;;7.67;0.90;;;;;;;9.65;36.27;102407.48;1687350;84;21084;-65
2021/10/07 09:31:28;;;;;;;5.17;1.70;;;;;;;9.74;35.98;102417.84;1680051;85;21360;-75
2021/10/07 09:34:02;;;;;;;1.73;0.63;;;;;;;9.79;36.03;102407.61;1656697;82;21116;-70
2021/10/07 09:36:30;;;;;;;14.10;1.47;;;;;;;9.86;35.99;102403.45;1646707;86;21014;-69
2021/10/07 09:38:58;;;;;;;6.27;0.77;;;;;;;9.98;35.79;102409.52;1653900;86;21605;-68
2021/10/07 09:41:33;;;;;;;3.77;0.70;;;;;;;10.11;35.44;102420.83;1637521;85;21615;-71
2021/10/07 09:44:04;;;;;;;5.40;1.50;;;;;;;10.24;35.19;102428.56;1641357;86;21132;-69
2021/10/07 09:46:50;;;;;;;6.33;1.10;;;;;;;10.33;34.97;102405.12;1646350;86;21045;-69
2021/10/07 09:49:35;;;;;;;2.07;1.23;;;;;;;10.41;35.01;102422.27;1646866;85;21061;-71
2021/10/07 09:52:02;;;;;;;4.97;1.17;;;;;;;10.48;34.83;102407.42;1649931;85;21029;-71
2021/10/07 09:54:35;;;;;;;1.07;0.63;;;;;;;10.55;34.34;102411.70;1638725;85;20989;-71
2021/10/07 09:57:03;;;;;;;1.83;0.80;;;;;;;10.57;34.18;102402.60;1654982;83;20960;-66
2021/10/07 09:59:33;;;;;;;3.33;0.80;;;;;;;10.62;33.87;102411.51;1668217;85;20985;-73
2021/10/07 10:02:00;;;;;;;1.40;0.73;;;;;;;10.65;33.70;102384.07;1670458;83;21021;-70
2021/10/07 10:04:28;;;;;;;11.43;1.47;;;;;;;10.67;33.89;102386.11;1675797;85;21572;-68
2021/10/07 10:06:54;;;;;;;2.80;0.80;;;;;;;10.69;34.18;102404.14;1660308;85;20975;-69
2021/10/07 10:09:23;;;;;;;;;;;;;;;10.71;33.87;102392.02;1670432;85;20999;-70
2021/10/07 10:11:50;;;;;;;10.53;0.90;;;;;;;10.75;33.66;102391.24;1662642;81;20140;-68
2021/10/07 10:14:22;;;;;;;4.57;0.60;;;;;;;10.71;33.58;102410.18;1642809;85;21057;-70
2021/10/07 10:16:52;;;;;;;0.80;0.57;;;;;;;10.76;33.10;102407.12;1647673;85;20982;-69
2021/10/07 10:19:19;;;;;;;2.17;0.60;;;;;;;10.73;33.25;102370.54;1654623;86;21181;-69
2021/10/07 10:21:45;;;;;;;;;;;;;;;10.76;32.72;102376.94;1656307;85;20998;-69
2021/10/07 10:24:11;;;;;;;3.20;0.30;;;;;;;10.79;31.76;102369.97;1654404;83;20158;-69
2021/10/07 10:26:39;;;;;;;;;;;;;;;10.73;31.17;102389.20;1660932;85;21022;-69
2021/10/07 10:29:20;;;;;;;6.95;0.90;;;;;;;10.74;30.48;102357.53;1659923;84;20122;-70
2021/10/07 10:31:53;;;;;;;2.60;0.20;;;;;;;10.69;31.02;102386.81;1671707;85;21466;-71
2021/10/07 10:34:21;;;;;;;6.57;0.70;;;;;;;10.75;30.86;102363.23;1648799;82;20966;-70
2021/10/07 10:36:55;;;;;;;7.03;0.40;;;;;;;10.80;31.00;102363.67;1642634;86;20979;-69
2021/10/07 10:39:36;;;;;;;4.23;0.40;;;;;;;10.84;31.08;102354.39;1640874;86;20982;-68
2021/10/07 10:42:26;;;;;;;6.10;0.40;;;;;;;10.88;31.22;102357.12;1636782;86;21023;-69
2021/10/07 10:44:58;;;;;;;1.97;0.20;;;;;;;10.82;31.31;102368.38;1641050;83;21073;-70
2021/10/07 10:47:30;;;;;;;1.70;0.50;;;;;;;10.95;30.80;102354.25;1634081;86;21565;-70
2021/10/07 10:50:12;;;;;;;8.87;0.80;;;;;;;10.91;30.92;102349.69;1640565;86;21099;-70
2021/10/07 10:52:52;;;;;;;7.40;0.33;;;;;;;10.93;30.93;102351.38;1638868;85;21046;-66
2021/10/07 10:55:27;;;;;;;7.83;0.77;;;;;;;10.96;30.94;102345.75;1648893;82;20979;-71
2021/10/07 10:58:03;;;;;;;0.30;0.20;;;;;;;11.02;30.31;102364.72;1641318;86;21085;-69
2021/10/07 11:00:34;;;;;;;3.50;0.30;;;;;;;11.02;29.93;102354.51;1636844;85;20990;-71
2021/10/07 11:03:13;;;;;;;5.43;0.77;;;;;;;11.01;29.89;102329.66;1640005;86;21001;-68
2021/10/07 11:06:04;;;;;;;1.27;0.20;;;;;;;11.05;29.85;102344.90;1629450;86;20993;-72
2021/10/07 11:08:45;;;;;;;1.77;0.83;;;;;;;11.09;29.94;102332.48;1642680;86;20962;-68
2021/10/07 11:11:24;;;;;;;1.57;0.33;;;;;;;11.14;30.15;102335.20;1631990;85;20981;-71
2021/10/07 11:13:53;;;;;;;11.10;0.70;;;;;;;11.19;30.30;102384.51;1625551;86;21105;-72
2021/10/07 11:16:21;;;;;;;0.50;0.37;;;;;;;11.24;30.13;102321.33;1622285;86;21412;-71
2021/10/07 11:18:49;;;;;;;1.70;0.50;;;;;;;11.28;29.76;102352.09;1630165;87;21099;-70
2021/10/07 11:21:19;;;;;;;3.03;0.40;;;;;;;11.31;29.91;102343.80;1620875;86;21125;-68
2021/10/07 11:23:50;;;;;;;5.20;0.77;;;;;;;11.35;29.25;102355.04;1649880;84;21038;-66
2021/10/07 11:26:18;;;;;;;4.97;0.60;;;;;;;11.34;29.45;102336.85;1656415;85;21078;-67
2021/10/07 11:28:48;;;;;;;2.40;0.40;;;;;;;11.38;29.74;102338.24;1664823;84;21133;-70
2021/10/07 11:31:21;;;;;;;2.15;0.75;;;;;;;11.40;29.90;102350.95;1659138;85;21798;-67
2021/10/07 11:33:53;;;;;;;3.50;0.63;;;;;;;11.42;29.79;102345.47;1659968;82;21077;-68
2021/10/07 11:36:24;;;;;;;2.03;0.40;;;;;;;11.42;30.04;102330.78;1659486;85;21134;-68
2021/10/07 11:38:53;;;;;;;2.20;0.30;;;;;;;11.44;30.27;102334.15;1670266;85;20975;-67
2021/10/07 11:41:24;;;;;;;1.23;0.37;;;;;;;11.48;30.29;102330.20;1653552;85;21053;-67